Time,TemperatureF,DewpointF,PressureIn,WindDirection,WindDirectionDegrees,WindSpeedMPH,WindSpeedGustMPH,Humidity,HourlyPrecipIn,Conditions,Clouds,dailyrainin,SoftwareType,DateUTC
2013-05-08 00:00:00,49.7,50.5,29.70,North,-999,-999.0,-999.0,103,0.00,,,0.00,tws,2013-05-08 04:00:00,
2013-05-08 00:05:00,49.7,50.4,29.69,North,-999,-999.0,-999.0,102,0.00,,,0.00,tws,2013-05-08 04:05:00,
2013-05-08 00:10:00,49.8,50.5,29.69,North,-999,-999.0,-999.0,103,0.00,,,0.00,tws,2013-05-08 04:10:00,
2013-05-08 00:15:00,49.8,50.5,29.69,North,-999,-999.0,-999.0,102,0.00,,,0.00,tws,2013-05-08 04:15:00,
2013-05-08 00:20:00,49.8,50.6,29.69,North,-999,-999.0,-999.0,103,0.00,,,0.00,tws,2013-05-08 04:20:00,
2013-05-08 00:25:00,49.8,50.6,29.69,North,-999,-999.0,-999.0,102,0.00,,,0.00,tws,2013-05-08 04:25:00,
2013-05-08 00:30:00,49.8,50.6,29.69,North,-999,-999.0,-999.0,103,0.00,,,0.00,tws,2013-05-08 04:30:00,
2013-05-08 00:35:00,49.8,50.6,29.69,North,-999,-999.0,-999.0,103,0.00,,,0.00,tws,2013-05-08 04:35:00,
2013-05-08 00:40:00,49.9,50.7,29.69,North,-999,-999.0,-999.0,103,0.00,,,0.00,tws,2013-05-08 04:40:00,
2013-05-08 00:45:00,49.9,50.7,29.69,North,-999,-999.0,-999.0,103,0.00,,,0.00,tws,2013-05-08 04:45:00,
2013-05-08 00:50:00,49.8,50.6,29.69,North,-999,-999.0,-999.0,103,0.00,,,0.00,tws,2013-05-08 04:50:00,
2013-05-08 00:55:00,49.8,50.7,29.70,North,-999,-999.0,-999.0,103,0.00,,,0.00,tws,2013-05-08 04:55:00,
2013-05-08 01:00:00,49.9,50.7,29.69,North,-999,-999.0,-999.0,103,0.00,,,0.00,tws,2013-05-08 05:00:00,
2013-05-08 01:05:00,49.9,50.7,29.69,North,-999,-999.0,-999.0,103,0.00,,,0.00,tws,2013-05-08 05:05:00,
2013-05-08 01:10:00,49.9,50.7,29.69,North,-999,-999.0,-999.0,103,0.00,,,0.00,tws,2013-05-08 05:10:00,
2013-05-08 01:15:00,49.9,50.8,29.69,North,-999,-999.0,-999.0,103,0.00,,,0.00,tws,2013-05-08 05:15:00,
2013-05-08 01:20:00,50.0,50.8,29.69,North,-999,-999.0,-999.0,103,0.00,,,0.00,tws,2013-05-08 05:20:00,
2013-05-08 01:25:00,50.1,50.9,29.69,North,-999,-999.0,-999.0,103,0.12,,,0.01,tws,2013-05-08 05:25:00,
2013-05-08 01:30:00,50.1,51.0,29.69,North,-999,-999.0,-999.0,103,0.00,,,0.01,tws,2013-05-08 05:30:00,
2013-05-08 01:35:00,50.2,51.0,29.69,North,-999,-999.0,-999.0,103,0.00,,,0.01,tws,2013-05-08 05:35:00,
2013-05-08 01:40:00,50.2,51.1,29.69,North,-999,-999.0,-999.0,103,0.00,,,0.01,tws,2013-05-08 05:40:00,
2013-05-08 01:45:00,50.2,51.1,29.69,North,-999,-999.0,-999.0,103,0.00,,,0.01,tws,2013-05-08 05:45:00,
2013-05-08 01:50:00,50.3,51.2,29.69,North,-999,-999.0,-999.0,103,0.00,,,0.01,tws,2013-05-08 05:50:00,
2013-05-08 01:55:00,50.2,51.1,29.69,North,-999,-999.0,-999.0,103,0.00,,,0.01,tws,2013-05-08 05:55:00,
2013-05-08 02:00:00,50.2,51.1,29.68,North,-999,-999.0,-999.0,103,0.00,,,0.01,tws,2013-05-08 06:00:00,
2013-05-08 02:05:00,50.2,51.1,29.68,North,-999,-999.0,-999.0,103,0.00,,,0.01,tws,2013-05-08 06:05:00,
2013-05-08 02:10:00,50.3,51.1,29.68,North,-999,-999.0,-999.0,103,0.00,,,0.01,tws,2013-05-08 06:10:00,
2013-05-08 02:15:00,50.2,51.1,29.68,North,-999,-999.0,-999.0,103,0.00,,,0.01,tws,2013-05-08 06:15:00,
2013-05-08 02:20:00,50.2,51.0,29.67,North,-999,-999.0,-999.0,103,0.00,,,0.01,tws,2013-05-08 06:20:00,
2013-05-08 02:25:00,50.2,51.0,29.67,North,-999,-999.0,-999.0,102,0.00,,,0.01,tws,2013-05-08 06:25:00,
2013-05-08 02:30:00,50.2,51.1,29.67,North,-999,-999.0,-999.0,103,0.00,,,0.01,tws,2013-05-08 06:30:00,
2013-05-08 02:35:00,50.2,51.1,29.67,North,-999,-999.0,-999.0,103,0.00,,,0.01,tws,2013-05-08 06:35:00,
2013-05-08 02:40:00,50.3,51.1,29.67,North,-999,-999.0,-999.0,103,0.00,,,0.01,tws,2013-05-08 06:40:00,
2013-05-08 02:45:00,50.3,51.2,29.67,North,-999,-999.0,-999.0,103,0.00,,,0.01,tws,2013-05-08 06:45:00,
2013-05-08 02:50:00,50.3,51.2,29.67,North,-999,-999.0,-999.0,103,0.00,,,0.01,tws,2013-05-08 06:50:00,
2013-05-08 02:55:00,50.4,51.2,29.67,North,-999,-999.0,-999.0,103,0.00,,,0.01,tws,2013-05-08 06:55:00,
2013-05-08 03:00:00,50.3,51.2,29.67,North,-999,-999.0,-999.0,103,0.00,,,0.01,tws,2013-05-08 07:00:00,
2013-05-08 03:05:00,50.4,51.2,29.67,North,-999,-999.0,-999.0,103,0.00,,,0.01,tws,2013-05-08 07:05:00,
2013-05-08 03:10:00,50.4,51.3,29.67,North,-999,-999.0,-999.0,103,0.00,,,0.01,tws,2013-05-08 07:10:00,
2013-05-08 03:15:00,50.5,51.3,29.67,North,-999,-999.0,-999.0,103,0.00,,,0.01,tws,2013-05-08 07:15:00,
2013-05-08 03:20:00,50.5,51.3,29.67,North,-999,-999.0,-999.0,103,0.00,,,0.01,tws,2013-05-08 07:20:00,
2013-05-08 03:25:00,50.5,51.3,29.67,North,-999,-999.0,-999.0,103,0.00,,,0.01,tws,2013-05-08 07:25:00,
2013-05-08 03:30:00,50.5,51.4,29.67,North,-999,-999.0,-999.0,103,0.00,,,0.01,tws,2013-05-08 07:30:00,
2013-05-08 03:35:00,50.5,51.4,29.67,North,-999,-999.0,-999.0,103,0.00,,,0.01,tws,2013-05-08 07:35:00,
2013-05-08 03:40:00,50.5,51.3,29.67,North,-999,-999.0,-999.0,103,0.00,,,0.01,tws,2013-05-08 07:40:00,
2013-05-08 03:45:00,50.6,51.4,29.67,North,-999,-999.0,-999.0,103,0.00,,,0.01,tws,2013-05-08 07:45:00,
2013-05-08 03:50:00,50.6,51.4,29.67,North,-999,-999.0,-999.0,103,0.00,,,0.01,tws,2013-05-08 07:50:00,
2013-05-08 03:55:00,50.6,51.4,29.67,North,-999,-999.0,-999.0,103,0.00,,,0.01,tws,2013-05-08 07:55:00,
2013-05-08 04:00:00,50.6,51.4,29.67,North,-999,-999.0,-999.0,103,0.00,,,0.01,tws,2013-05-08 08:00:00,
2013-05-08 04:05:00,50.6,51.4,29.67,North,-999,-999.0,-999.0,103,0.00,,,0.01,tws,2013-05-08 08:05:00,
2013-05-08 04:10:00,50.6,51.4,29.67,North,-999,-999.0,-999.0,103,0.00,,,0.01,tws,2013-05-08 08:10:00,
2013-05-08 04:15:00,50.6,51.5,29.67,North,-999,-999.0,-999.0,103,0.00,,,0.01,tws,2013-05-08 08:15:00,
2013-05-08 04:20:00,50.6,51.4,29.67,North,-999,-999.0,-999.0,103,0.00,,,0.01,tws,2013-05-08 08:20:00,
2013-05-08 04:25:00,50.6,51.4,29.67,North,-999,-999.0,-999.0,103,0.00,,,0.01,tws,2013-05-08 08:25:00,
2013-05-08 04:30:00,50.7,51.5,29.67,North,-999,-999.0,-999.0,103,0.12,,,0.02,tws,2013-05-08 08:30:00,
2013-05-08 04:35:00,50.7,51.6,29.68,North,-999,-999.0,-999.0,103,0.00,,,0.02,tws,2013-05-08 08:35:00,
2013-05-08 04:40:00,50.7,51.5,29.68,North,-999,-999.0,-999.0,103,0.00,,,0.02,tws,2013-05-08 08:40:00,
2013-05-08 04:45:00,50.8,51.7,29.68,North,-999,-999.0,-999.0,103,0.00,,,0.02,tws,2013-05-08 08:45:00,
2013-05-08 04:50:00,50.8,51.7,29.68,North,-999,-999.0,-999.0,103,0.00,,,0.02,tws,2013-05-08 08:50:00,
2013-05-08 04:55:00,50.8,51.7,29.68,North,-999,-999.0,-999.0,103,0.00,,,0.02,tws,2013-05-08 08:55:00,
2013-05-08 05:00:00,50.9,51.7,29.69,North,-999,-999.0,-999.0,103,0.00,,,0.02,tws,2013-05-08 09:00:00,
2013-05-08 05:05:00,50.9,51.7,29.68,North,-999,-999.0,-999.0,103,0.00,,,0.02,tws,2013-05-08 09:05:00,
2013-05-08 05:10:00,50.9,51.8,29.68,North,-999,-999.0,-999.0,103,0.00,,,0.02,tws,2013-05-08 09:10:00,
2013-05-08 05:15:00,50.9,51.8,29.68,North,-999,-999.0,-999.0,103,0.12,,,0.03,tws,2013-05-08 09:15:00,
2013-05-08 05:20:00,50.8,51.6,29.67,North,-999,-999.0,-999.0,103,0.00,,,0.03,tws,2013-05-08 09:20:00,
2013-05-08 05:25:00,50.7,51.6,29.67,North,-999,-999.0,-999.0,103,0.00,,,0.03,tws,2013-05-08 09:25:00,
2013-05-08 05:30:00,50.5,51.3,29.67,North,-999,-999.0,-999.0,103,0.00,,,0.03,tws,2013-05-08 09:30:00,
2013-05-08 05:35:00,50.4,51.2,29.67,North,-999,-999.0,-999.0,103,0.00,,,0.03,tws,2013-05-08 09:35:00,
2013-05-08 05:40:00,50.2,51.0,29.67,North,-999,-999.0,-999.0,103,0.00,,,0.03,tws,2013-05-08 09:40:00,
2013-05-08 05:45:00,50.0,50.9,29.67,North,-999,-999.0,-999.0,103,0.00,,,0.03,tws,2013-05-08 09:45:00,
2013-05-08 05:50:00,49.9,50.7,29.67,North,-999,-999.0,-999.0,103,0.00,,,0.03,tws,2013-05-08 09:50:00,
2013-05-08 05:55:00,49.8,50.6,29.67,North,-999,-999.0,-999.0,103,0.00,,,0.03,tws,2013-05-08 09:55:00,
2013-05-08 06:00:00,49.6,50.4,29.67,North,-999,-999.0,-999.0,103,0.00,,,0.03,tws,2013-05-08 10:00:00,
2013-05-08 06:05:00,49.5,50.3,29.67,North,-999,-999.0,-999.0,103,0.00,,,0.03,tws,2013-05-08 10:05:00,
2013-05-08 06:10:00,49.3,50.2,29.67,North,-999,-999.0,-999.0,103,0.00,,,0.03,tws,2013-05-08 10:10:00,
2013-05-08 06:15:00,49.3,50.2,29.67,North,-999,-999.0,-999.0,103,0.00,,,0.03,tws,2013-05-08 10:15:00,
2013-05-08 06:20:00,49.3,50.1,29.68,North,-999,-999.0,-999.0,103,0.00,,,0.03,tws,2013-05-08 10:20:00,
2013-05-08 06:25:00,49.2,50.0,29.68,North,-999,-999.0,-999.0,103,0.00,,,0.03,tws,2013-05-08 10:25:00,
2013-05-08 06:30:00,49.2,50.0,29.68,North,-999,-999.0,-999.0,103,0.00,,,0.03,tws,2013-05-08 10:30:00,
2013-05-08 06:35:00,49.2,50.1,29.68,North,-999,-999.0,-999.0,103,0.00,,,0.03,tws,2013-05-08 10:35:00,
2013-05-08 06:40:00,49.2,50.1,29.68,North,-999,-999.0,-999.0,103,0.00,,,0.03,tws,2013-05-08 10:40:00,
2013-05-08 06:45:00,49.2,50.2,29.69,North,-999,-999.0,-999.0,103,0.00,,,0.03,tws,2013-05-08 10:45:00,
2013-05-08 06:50:00,49.3,50.2,29.69,North,-999,-999.0,-999.0,103,0.00,,,0.03,tws,2013-05-08 10:50:00,
2013-05-08 06:55:00,49.3,50.2,29.69,North,-999,-999.0,-999.0,103,0.00,,,0.03,tws,2013-05-08 10:55:00,
2013-05-08 07:00:00,49.3,50.2,29.69,North,-999,-999.0,-999.0,103,0.00,,,0.03,tws,2013-05-08 11:00:00,
2013-05-08 07:05:00,49.3,0.0,29.69,North,-999,-999.0,-999.0,-337,0.00,,,0.03,tws,2013-05-08 11:05:00,
2013-05-08 07:10:00,49.2,0.0,29.69,North,-999,-999.0,-999.0,-117,0.00,,,0.03,tws,2013-05-08 11:10:00,
2013-05-08 07:15:00,49.3,50.3,3.76,North,-999,-999.0,-999.0,103,0.00,,,0.03,tws,2013-05-08 11:15:00,
2013-05-08 07:20:00,49.4,50.3,29.69,North,-999,-999.0,-999.0,103,0.00,,,0.03,tws,2013-05-08 11:20:00,
2013-05-08 07:25:00,49.5,50.4,29.70,North,-999,-999.0,-999.0,103,0.00,,,0.03,tws,2013-05-08 11:25:00,
2013-05-08 07:30:00,49.7,50.6,29.70,North,-999,-999.0,-999.0,103,0.00,,,0.03,tws,2013-05-08 11:30:00,
2013-05-08 07:35:00,49.8,50.8,29.70,North,-999,-999.0,-999.0,103,0.00,,,0.03,tws,2013-05-08 11:35:00,
2013-05-08 07:40:00,50.0,51.0,29.70,North,-999,-999.0,-999.0,103,0.00,,,0.03,tws,2013-05-08 11:40:00,
2013-05-08 07:45:00,50.4,51.3,29.70,North,-999,-999.0,-999.0,103,0.00,,,0.03,tws,2013-05-08 11:45:00,
2013-05-08 07:50:00,50.9,51.9,29.71,North,-999,-999.0,-999.0,103,0.00,,,0.03,tws,2013-05-08 11:50:00,
2013-05-08 07:55:00,51.2,52.1,29.72,North,-999,-999.0,-999.0,103,0.00,,,0.03,tws,2013-05-08 11:55:00,
2013-05-08 08:00:00,51.4,52.4,29.72,North,-999,-999.0,-999.0,103,0.00,,,0.03,tws,2013-05-08 12:00:00,
2013-05-08 08:05:00,51.6,52.6,29.72,North,-999,-999.0,-999.0,103,0.00,,,0.03,tws,2013-05-08 12:05:00,
2013-05-08 08:10:00,51.8,52.7,29.72,North,-999,-999.0,-999.0,103,0.00,,,0.03,tws,2013-05-08 12:10:00,
2013-05-08 08:15:00,51.8,52.8,29.72,North,-999,-999.0,-999.0,103,0.00,,,0.03,tws,2013-05-08 12:15:00,
2013-05-08 08:20:00,51.9,52.9,29.72,North,-999,-999.0,-999.0,103,0.00,,,0.03,tws,2013-05-08 12:20:00,
2013-05-08 08:25:00,52.0,52.9,29.72,North,-999,-999.0,-999.0,103,0.00,,,0.03,tws,2013-05-08 12:25:00,
2013-05-08 08:30:00,52.0,52.9,29.72,North,-999,-999.0,-999.0,103,0.00,,,0.03,tws,2013-05-08 12:30:00,
2013-05-08 08:35:00,52.0,52.9,29.73,North,-999,-999.0,-999.0,103,0.00,,,0.03,tws,2013-05-08 12:35:00,
2013-05-08 08:40:00,52.1,52.9,29.73,North,-999,-999.0,-999.0,103,0.00,,,0.03,tws,2013-05-08 12:40:00,
2013-05-08 08:45:00,52.1,52.9,29.73,North,-999,-999.0,-999.0,103,0.00,,,0.03,tws,2013-05-08 12:45:00,
2013-05-08 08:50:00,52.1,53.0,29.73,North,-999,-999.0,-999.0,103,0.00,,,0.03,tws,2013-05-08 12:50:00,
2013-05-08 08:55:00,52.2,53.0,29.73,North,-999,-999.0,-999.0,103,0.00,,,0.03,tws,2013-05-08 12:55:00,
2013-05-08 09:00:00,52.2,53.1,29.73,North,-999,-999.0,-999.0,103,0.00,,,0.03,tws,2013-05-08 13:00:00,
2013-05-08 09:05:00,52.5,53.4,29.73,North,-999,-999.0,-999.0,103,0.00,,,0.03,tws,2013-05-08 13:05:00,
2013-05-08 09:10:00,52.7,53.6,29.73,North,-999,-999.0,-999.0,103,0.00,,,0.03,tws,2013-05-08 13:10:00,
2013-05-08 09:15:00,53.0,53.9,29.73,North,-999,-999.0,-999.0,103,0.00,,,0.03,tws,2013-05-08 13:15:00,
2013-05-08 09:20:00,53.2,0.0,29.73,North,-999,-999.0,-999.0,-117,0.00,,,0.03,tws,2013-05-08 13:20:00,
2013-05-08 09:25:00,53.5,54.4,29.73,North,-999,-999.0,-999.0,103,0.00,,,0.03,tws,2013-05-08 13:25:00,
2013-05-08 09:30:00,53.7,54.6,29.73,North,-999,-999.0,-999.0,103,0.00,,,0.03,tws,2013-05-08 13:30:00,
2013-05-08 09:35:00,54.0,54.8,29.73,North,-999,-999.0,-999.0,103,0.00,,,0.03,tws,2013-05-08 13:35:00,
2013-05-08 09:40:00,54.0,54.9,29.73,North,-999,-999.0,-999.0,103,0.00,,,0.03,tws,2013-05-08 13:40:00,
2013-05-08 09:45:00,53.9,54.8,29.73,North,-999,-999.0,-999.0,103,0.00,,,0.03,tws,2013-05-08 13:45:00,
2013-05-08 09:50:00,54.1,55.0,29.73,North,-999,-999.0,-999.0,103,0.00,,,0.03,tws,2013-05-08 13:50:00,
2013-05-08 09:55:00,54.5,55.4,29.73,North,-999,-999.0,-999.0,103,0.00,,,0.03,tws,2013-05-08 13:55:00,
2013-05-08 10:00:00,54.6,55.5,29.74,North,-999,-999.0,-999.0,103,0.00,,,0.03,tws,2013-05-08 14:00:00,
2013-05-08 10:05:00,54.6,55.4,29.74,North,-999,-999.0,-999.0,103,0.00,,,0.03,tws,2013-05-08 14:05:00,
2013-05-08 10:10:00,54.4,55.2,29.74,North,-999,-999.0,-999.0,103,0.00,,,0.03,tws,2013-05-08 14:10:00,
2013-05-08 10:15:00,54.2,55.0,29.74,North,-999,-999.0,-999.0,103,0.00,,,0.03,tws,2013-05-08 14:15:00,
2013-05-08 10:20:00,54.1,54.9,29.74,North,-999,-999.0,-999.0,103,0.00,,,0.03,tws,2013-05-08 14:20:00,
2013-05-08 10:25:00,54.2,54.9,29.74,North,-999,-999.0,-999.0,102,0.00,,,0.03,tws,2013-05-08 14:25:00,
2013-05-08 10:30:00,54.2,54.9,29.74,North,-999,-999.0,-999.0,102,0.00,,,0.03,tws,2013-05-08 14:30:00,
2013-05-08 10:35:00,54.2,55.0,29.74,North,-999,-999.0,-999.0,102,0.00,,,0.03,tws,2013-05-08 14:35:00,
2013-05-08 10:40:00,54.4,55.2,29.74,North,-999,-999.0,-999.0,103,0.00,,,0.03,tws,2013-05-08 14:40:00,
2013-05-08 10:45:00,54.7,55.5,29.74,North,-999,-999.0,-999.0,102,0.00,,,0.03,tws,2013-05-08 14:45:00,
2013-05-08 10:50:00,55.3,56.1,29.74,North,-999,-999.0,-999.0,103,0.00,,,0.03,tws,2013-05-08 14:50:00,
2013-05-08 10:55:00,56.1,56.9,29.74,North,-999,-999.0,-999.0,103,0.00,,,0.03,tws,2013-05-08 14:55:00,
2013-05-08 11:00:00,56.6,57.5,29.74,North,-999,-999.0,-999.0,103,0.00,,,0.03,tws,2013-05-08 15:00:00,
2013-05-08 11:05:00,56.8,57.6,29.74,North,-999,-999.0,-999.0,103,0.00,,,0.03,tws,2013-05-08 15:05:00,
2013-05-08 11:10:00,56.7,57.5,29.74,North,-999,-999.0,-999.0,102,0.00,,,0.03,tws,2013-05-08 15:10:00,
2013-05-08 11:15:00,56.8,57.6,29.74,North,-999,-999.0,-999.0,102,0.00,,,0.03,tws,2013-05-08 15:15:00,
2013-05-08 11:20:00,56.9,57.6,29.74,North,-999,-999.0,-999.0,102,0.00,,,0.03,tws,2013-05-08 15:20:00,
2013-05-08 11:25:00,57.1,57.8,29.74,North,-999,-999.0,-999.0,102,0.00,,,0.03,tws,2013-05-08 15:25:00,
2013-05-08 11:30:00,57.3,57.9,29.75,North,-999,-999.0,-999.0,102,0.00,,,0.03,tws,2013-05-08 15:30:00,
2013-05-08 11:35:00,57.3,57.8,29.74,North,-999,-999.0,-999.0,101,0.00,,,0.03,tws,2013-05-08 15:35:00,
2013-05-08 11:40:00,57.5,57.7,29.74,North,-999,-999.0,-999.0,100,0.00,,,0.03,tws,2013-05-08 15:40:00,
2013-05-08 11:45:00,57.7,57.8,29.75,North,-999,-999.0,-999.0,100,0.00,,,0.03,tws,2013-05-08 15:45:00,
2013-05-08 11:50:00,58.1,58.0,29.74,North,-999,-999.0,-999.0,99,0.00,,,0.03,tws,2013-05-08 15:50:00,
2013-05-08 11:55:00,58.3,57.8,29.74,North,-999,-999.0,-999.0,98,0.00,,,0.03,tws,2013-05-08 15:55:00,
2013-05-08 12:00:00,58.5,57.8,29.75,North,-999,-999.0,-999.0,97,0.00,,,0.03,tws,2013-05-08 16:00:00,
2013-05-08 12:05:00,58.6,57.8,29.74,North,-999,-999.0,-999.0,97,0.00,,,0.03,tws,2013-05-08 16:05:00,
2013-05-08 12:10:00,58.9,58.2,29.75,North,-999,-999.0,-999.0,97,0.00,,,0.03,tws,2013-05-08 16:10:00,
2013-05-08 12:15:00,59.0,58.3,29.75,North,-999,-999.0,-999.0,97,0.00,,,0.03,tws,2013-05-08 16:15:00,
2013-05-08 12:20:00,58.9,57.4,29.75,North,-999,-999.0,-999.0,94,0.00,,,0.03,tws,2013-05-08 16:20:00,
2013-05-08 12:25:00,58.8,57.3,29.75,North,-999,-999.0,-999.0,94,0.00,,,0.03,tws,2013-05-08 16:25:00,
2013-05-08 12:30:00,58.7,57.2,29.75,North,-999,-999.0,-999.0,94,0.00,,,0.03,tws,2013-05-08 16:30:00,
2013-05-08 12:35:00,58.7,57.3,29.75,North,-999,-999.0,-999.0,95,0.00,,,0.03,tws,2013-05-08 16:35:00,
2013-05-08 12:40:00,58.9,57.5,29.74,North,-999,-999.0,-999.0,95,0.00,,,0.03,tws,2013-05-08 16:40:00,
2013-05-08 12:45:00,59.3,57.5,29.74,North,-999,-999.0,-999.0,93,0.00,,,0.03,tws,2013-05-08 16:45:00,
2013-05-08 12:50:00,59.7,58.0,29.74,North,-999,-999.0,-999.0,94,0.00,,,0.03,tws,2013-05-08 16:50:00,
2013-05-08 12:55:00,60.1,58.0,29.74,North,-999,-999.0,-999.0,92,0.00,,,0.03,tws,2013-05-08 16:55:00,
2013-05-08 13:00:00,60.2,57.6,29.74,North,-999,-999.0,-999.0,90,0.00,,,0.03,tws,2013-05-08 17:00:00,
2013-05-08 13:05:00,60.0,56.7,29.74,North,-999,-999.0,-999.0,88,0.00,,,0.03,tws,2013-05-08 17:05:00,
2013-05-08 13:10:00,59.9,56.5,29.74,North,-999,-999.0,-999.0,88,0.00,,,0.03,tws,2013-05-08 17:10:00,
2013-05-08 13:15:00,60.1,56.5,29.74,North,-999,-999.0,-999.0,87,0.00,,,0.03,tws,2013-05-08 17:15:00,
2013-05-08 13:20:00,60.3,56.8,29.74,North,-999,-999.0,-999.0,88,0.00,,,0.03,tws,2013-05-08 17:20:00,
2013-05-08 13:25:00,60.3,56.4,29.74,North,-999,-999.0,-999.0,87,0.00,,,0.03,tws,2013-05-08 17:25:00,
2013-05-08 13:30:00,60.3,56.6,29.74,North,-999,-999.0,-999.0,87,0.00,,,0.03,tws,2013-05-08 17:30:00,
2013-05-08 13:35:00,60.6,56.5,29.74,North,-999,-999.0,-999.0,86,0.00,,,0.03,tws,2013-05-08 17:35:00,
2013-05-08 13:40:00,60.7,56.3,29.74,North,-999,-999.0,-999.0,85,0.00,,,0.03,tws,2013-05-08 17:40:00,
2013-05-08 13:45:00,60.9,56.4,29.74,North,-999,-999.0,-999.0,84,0.00,,,0.03,tws,2013-05-08 17:45:00,
2013-05-08 13:50:00,61.0,55.5,29.74,North,-999,-999.0,-999.0,81,0.00,,,0.03,tws,2013-05-08 17:50:00,
2013-05-08 13:55:00,61.3,55.6,29.74,North,-999,-999.0,-999.0,81,0.00,,,0.03,tws,2013-05-08 17:55:00,
2013-05-08 14:00:00,62.0,55.2,29.74,North,-999,-999.0,-999.0,78,0.00,,,0.03,tws,2013-05-08 18:00:00,
2013-05-08 14:05:00,62.9,55.9,29.74,North,-999,-999.0,-999.0,77,0.00,,,0.03,tws,2013-05-08 18:05:00,
2013-05-08 14:10:00,63.1,55.5,29.74,North,-999,-999.0,-999.0,75,0.00,,,0.03,tws,2013-05-08 18:10:00,
2013-05-08 14:15:00,62.8,55.6,29.74,North,-999,-999.0,-999.0,77,0.00,,,0.03,tws,2013-05-08 18:15:00,
2013-05-08 14:20:00,62.9,55.3,29.74,North,-999,-999.0,-999.0,76,0.00,,,0.03,tws,2013-05-08 18:20:00,
2013-05-08 14:25:00,63.7,55.7,29.74,North,-999,-999.0,-999.0,74,0.00,,,0.03,tws,2013-05-08 18:25:00,
2013-05-08 14:30:00,64.0,54.9,29.74,North,-999,-999.0,-999.0,72,0.00,,,0.03,tws,2013-05-08 18:30:00,
2013-05-08 14:35:00,63.6,54.2,29.74,North,-999,-999.0,-999.0,71,0.00,,,0.03,tws,2013-05-08 18:35:00,
2013-05-08 14:40:00,62.9,54.1,29.74,North,-999,-999.0,-999.0,72,0.00,,,0.03,tws,2013-05-08 18:40:00,
2013-05-08 14:45:00,62.5,53.8,29.74,North,-999,-999.0,-999.0,72,0.00,,,0.03,tws,2013-05-08 18:45:00,
2013-05-08 14:50:00,62.2,54.3,29.74,North,-999,-999.0,-999.0,74,0.00,,,0.03,tws,2013-05-08 18:50:00,
2013-05-08 14:55:00,62.3,54.6,29.74,North,-999,-999.0,-999.0,75,0.00,,,0.03,tws,2013-05-08 18:55:00,
2013-05-08 15:00:00,62.6,54.5,29.74,North,-999,-999.0,-999.0,74,0.00,,,0.03,tws,2013-05-08 19:00:00,
2013-05-08 15:05:00,62.9,54.7,29.74,North,-999,-999.0,-999.0,74,0.00,,,0.03,tws,2013-05-08 19:05:00,
2013-05-08 15:10:00,63.0,55.1,29.74,North,-999,-999.0,-999.0,75,0.00,,,0.03,tws,2013-05-08 19:10:00,
2013-05-08 15:15:00,63.3,55.9,29.74,North,-999,-999.0,-999.0,76,0.00,,,0.03,tws,2013-05-08 19:15:00,
2013-05-08 15:20:00,63.7,56.2,29.73,North,-999,-999.0,-999.0,76,0.00,,,0.03,tws,2013-05-08 19:20:00,
2013-05-08 15:25:00,63.8,55.8,29.73,North,-999,-999.0,-999.0,74,0.00,,,0.03,tws,2013-05-08 19:25:00,
2013-05-08 15:30:00,63.8,55.5,29.73,North,-999,-999.0,-999.0,73,0.00,,,0.03,tws,2013-05-08 19:30:00,
2013-05-08 15:35:00,63.7,55.0,29.73,North,-999,-999.0,-999.0,72,0.00,,,0.03,tws,2013-05-08 19:35:00,
2013-05-08 15:40:00,63.7,54.5,29.73,North,-999,-999.0,-999.0,71,0.00,,,0.03,tws,2013-05-08 19:40:00,
2013-05-08 15:45:00,63.5,54.4,29.73,North,-999,-999.0,-999.0,71,0.00,,,0.03,tws,2013-05-08 19:45:00,
2013-05-08 15:50:00,63.5,55.2,29.73,North,-999,-999.0,-999.0,74,0.00,,,0.03,tws,2013-05-08 19:50:00,
2013-05-08 15:55:00,63.7,54.9,29.73,North,-999,-999.0,-999.0,72,0.00,,,0.03,tws,2013-05-08 19:55:00,
2013-05-08 16:00:00,63.8,54.3,29.73,North,-999,-999.0,-999.0,70,0.00,,,0.03,tws,2013-05-08 20:00:00,
2013-05-08 16:05:00,63.8,54.3,29.73,North,-999,-999.0,-999.0,70,0.00,,,0.03,tws,2013-05-08 20:05:00,
2013-05-08 16:10:00,63.8,54.6,29.73,North,-999,-999.0,-999.0,71,0.00,,,0.03,tws,2013-05-08 20:10:00,
2013-05-08 16:15:00,63.8,54.8,29.73,North,-999,-999.0,-999.0,72,0.00,,,0.03,tws,2013-05-08 20:15:00,
2013-05-08 16:20:00,63.6,54.8,29.73,North,-999,-999.0,-999.0,72,0.00,,,0.03,tws,2013-05-08 20:20:00,
2013-05-08 16:25:00,63.3,54.8,29.73,North,-999,-999.0,-999.0,73,0.00,,,0.03,tws,2013-05-08 20:25:00,
2013-05-08 16:30:00,63.0,54.7,29.73,North,-999,-999.0,-999.0,73,0.00,,,0.03,tws,2013-05-08 20:30:00,
2013-05-08 16:35:00,62.9,54.9,29.73,North,-999,-999.0,-999.0,74,0.00,,,0.03,tws,2013-05-08 20:35:00,
2013-05-08 16:40:00,62.8,54.4,29.73,North,-999,-999.0,-999.0,73,0.00,,,0.03,tws,2013-05-08 20:40:00,
2013-05-08 16:45:00,62.9,54.4,29.73,North,-999,-999.0,-999.0,73,0.00,,,0.03,tws,2013-05-08 20:45:00,
2013-05-08 16:50:00,63.2,54.6,29.73,North,-999,-999.0,-999.0,73,0.00,,,0.03,tws,2013-05-08 20:50:00,
2013-05-08 16:55:00,63.5,54.5,29.73,North,-999,-999.0,-999.0,72,0.00,,,0.03,tws,2013-05-08 20:55:00,
2013-05-08 17:00:00,64.0,54.5,29.73,North,-999,-999.0,-999.0,70,0.00,,,0.03,tws,2013-05-08 21:00:00,
2013-05-08 17:05:00,64.4,55.1,29.74,North,-999,-999.0,-999.0,71,0.00,,,0.03,tws,2013-05-08 21:05:00,
2013-05-08 17:10:00,64.4,54.9,29.74,North,-999,-999.0,-999.0,71,0.00,,,0.03,tws,2013-05-08 21:10:00,
2013-05-08 17:15:00,64.5,54.8,29.74,North,-999,-999.0,-999.0,70,0.00,,,0.03,tws,2013-05-08 21:15:00,
2013-05-08 17:20:00,64.5,54.3,29.74,North,-999,-999.0,-999.0,69,0.00,,,0.03,tws,2013-05-08 21:20:00,
2013-05-08 17:25:00,64.6,54.2,29.74,North,-999,-999.0,-999.0,68,0.00,,,0.03,tws,2013-05-08 21:25:00,
2013-05-08 17:30:00,65.0,54.4,29.73,North,-999,-999.0,-999.0,68,0.00,,,0.03,tws,2013-05-08 21:30:00,
2013-05-08 17:35:00,65.2,54.6,29.74,North,-999,-999.0,-999.0,68,0.00,,,0.03,tws,2013-05-08 21:35:00,
2013-05-08 17:40:00,65.1,54.4,29.74,North,-999,-999.0,-999.0,68,0.00,,,0.03,tws,2013-05-08 21:40:00,
2013-05-08 17:45:00,65.0,54.3,29.74,North,-999,-999.0,-999.0,67,0.00,,,0.03,tws,2013-05-08 21:45:00,
2013-05-08 17:50:00,65.1,54.9,29.74,North,-999,-999.0,-999.0,69,0.00,,,0.03,tws,2013-05-08 21:50:00,
2013-05-08 17:55:00,64.9,55.1,29.74,North,-999,-999.0,-999.0,70,0.00,,,0.03,tws,2013-05-08 21:55:00,
2013-05-08 18:00:00,64.7,54.8,29.74,North,-999,-999.0,-999.0,69,0.00,,,0.03,tws,2013-05-08 22:00:00,
2013-05-08 18:05:00,64.6,55.0,29.74,North,-999,-999.0,-999.0,70,0.00,,,0.03,tws,2013-05-08 22:05:00,
2013-05-08 18:10:00,64.7,55.3,29.74,North,-999,-999.0,-999.0,71,0.00,,,0.03,tws,2013-05-08 22:10:00,
2013-05-08 18:15:00,65.0,55.4,29.74,North,-999,-999.0,-999.0,70,0.00,,,0.03,tws,2013-05-08 22:15:00,
2013-05-08 18:20:00,65.3,55.1,29.73,North,-999,-999.0,-999.0,69,0.00,,,0.03,tws,2013-05-08 22:20:00,
2013-05-08 18:25:00,65.2,54.9,29.74,North,-999,-999.0,-999.0,68,0.00,,,0.03,tws,2013-05-08 22:25:00,
2013-05-08 18:30:00,64.6,54.5,29.74,North,-999,-999.0,-999.0,69,0.00,,,0.03,tws,2013-05-08 22:30:00,
2013-05-08 18:35:00,64.0,54.5,29.74,North,-999,-999.0,-999.0,70,0.00,,,0.03,tws,2013-05-08 22:35:00,
2013-05-08 18:40:00,63.4,54.4,29.74,North,-999,-999.0,-999.0,72,0.00,,,0.03,tws,2013-05-08 22:40:00,
2013-05-08 18:45:00,63.0,54.1,29.74,North,-999,-999.0,-999.0,72,0.00,,,0.03,tws,2013-05-08 22:45:00,
2013-05-08 18:50:00,62.7,54.3,29.74,North,-999,-999.0,-999.0,73,0.00,,,0.03,tws,2013-05-08 22:50:00,
2013-05-08 18:55:00,62.6,53.9,29.74,North,-999,-999.0,-999.0,73,0.00,,,0.03,tws,2013-05-08 22:55:00,
2013-05-08 19:00:00,62.4,54.0,29.74,North,-999,-999.0,-999.0,73,0.00,,,0.03,tws,2013-05-08 23:00:00,
2013-05-08 19:05:00,62.3,54.3,29.74,North,-999,-999.0,-999.0,74,0.00,,,0.03,tws,2013-05-08 23:05:00,
2013-05-08 19:10:00,62.2,54.7,29.74,North,-999,-999.0,-999.0,76,0.00,,,0.03,tws,2013-05-08 23:10:00,
2013-05-08 19:15:00,62.2,54.8,29.75,North,-999,-999.0,-999.0,76,0.00,,,0.03,tws,2013-05-08 23:15:00,
2013-05-08 19:20:00,62.0,55.1,29.76,North,-999,-999.0,-999.0,78,0.00,,,0.03,tws,2013-05-08 23:20:00,
2013-05-08 19:25:00,61.7,54.8,29.76,North,-999,-999.0,-999.0,77,0.00,,,0.03,tws,2013-05-08 23:25:00,
2013-05-08 19:30:00,60.9,55.4,29.76,North,-999,-999.0,-999.0,81,0.12,,,0.04,tws,2013-05-08 23:30:00,
2013-05-08 19:35:00,60.3,56.4,29.76,North,-999,-999.0,-999.0,87,0.00,,,0.04,tws,2013-05-08 23:35:00,
2013-05-08 19:40:00,59.5,57.1,29.76,North,-999,-999.0,-999.0,91,0.12,,,0.05,tws,2013-05-08 23:40:00,
2013-05-08 19:45:00,59.0,58.1,29.76,North,-999,-999.0,-999.0,96,0.00,,,0.05,tws,2013-05-08 23:45:00,
2013-05-08 19:50:00,58.4,57.4,29.76,North,-999,-999.0,-999.0,96,0.00,,,0.05,tws,2013-05-08 23:50:00,
2013-05-08 19:55:00,57.8,57.2,29.76,North,-999,-999.0,-999.0,97,0.00,,,0.05,tws,2013-05-08 23:55:00,
2013-05-08 20:00:00,57.5,57.1,29.76,North,-999,-999.0,-999.0,98,0.00,,,0.05,tws,2013-05-09 00:00:00,
2013-05-08 20:05:00,57.2,57.0,29.76,North,-999,-999.0,-999.0,99,0.00,,,0.05,tws,2013-05-09 00:05:00,
2013-05-08 20:10:00,56.9,56.7,29.77,North,-999,-999.0,-999.0,99,0.00,,,0.05,tws,2013-05-09 00:10:00,
2013-05-08 20:15:00,56.7,56.6,29.77,North,-999,-999.0,-999.0,99,0.00,,,0.05,tws,2013-05-09 00:15:00,
2013-05-08 20:20:00,56.5,56.6,29.77,North,-999,-999.0,-999.0,100,0.00,,,0.05,tws,2013-05-09 00:20:00,
2013-05-08 20:25:00,56.3,56.5,29.77,North,-999,-999.0,-999.0,100,0.00,,,0.05,tws,2013-05-09 00:25:00,
2013-05-08 20:30:00,56.1,56.3,29.77,North,-999,-999.0,-999.0,100,0.00,,,0.05,tws,2013-05-09 00:30:00,
2013-05-08 20:35:00,56.0,56.2,29.77,North,-999,-999.0,-999.0,100,0.00,,,0.05,tws,2013-05-09 00:35:00,
2013-05-08 20:40:00,55.8,56.0,29.77,North,-999,-999.0,-999.0,100,0.00,,,0.05,tws,2013-05-09 00:40:00,
2013-05-08 20:45:00,55.6,55.9,29.78,North,-999,-999.0,-999.0,101,0.00,,,0.05,tws,2013-05-09 00:45:00,
2013-05-08 20:50:00,55.5,55.8,29.78,North,-999,-999.0,-999.0,101,0.00,,,0.05,tws,2013-05-09 00:50:00,
2013-05-08 20:55:00,55.4,55.7,29.78,North,-999,-999.0,-999.0,101,0.00,,,0.05,tws,2013-05-09 00:55:00,
2013-05-08 21:00:00,55.2,55.6,29.77,North,-999,-999.0,-999.0,101,0.00,,,0.05,tws,2013-05-09 01:00:00,
2013-05-08 21:05:00,55.1,55.5,29.78,North,-999,-999.0,-999.0,101,0.00,,,0.05,tws,2013-05-09 01:05:00,
2013-05-08 21:10:00,55.0,55.4,29.78,North,-999,-999.0,-999.0,101,0.00,,,0.05,tws,2013-05-09 01:10:00,
2013-05-08 21:15:00,54.9,55.3,29.79,North,-999,-999.0,-999.0,101,0.00,,,0.05,tws,2013-05-09 01:15:00,
2013-05-08 21:20:00,54.8,55.2,29.79,North,-999,-999.0,-999.0,101,0.00,,,0.05,tws,2013-05-09 01:20:00,
2013-05-08 21:25:00,54.8,55.2,29.79,North,-999,-999.0,-999.0,101,0.00,,,0.05,tws,2013-05-09 01:25:00,
2013-05-08 21:30:00,54.8,55.3,29.79,North,-999,-999.0,-999.0,101,0.00,,,0.05,tws,2013-05-09 01:30:00,
2013-05-08 21:35:00,54.7,55.1,29.79,North,-999,-999.0,-999.0,101,0.00,,,0.05,tws,2013-05-09 01:35:00,
2013-05-08 21:40:00,54.6,55.1,29.79,North,-999,-999.0,-999.0,101,0.00,,,0.05,tws,2013-05-09 01:40:00,
2013-05-08 21:45:00,54.5,55.1,29.79,North,-999,-999.0,-999.0,102,0.00,,,0.05,tws,2013-05-09 01:45:00,
2013-05-08 21:50:00,54.5,55.1,29.79,North,-999,-999.0,-999.0,102,0.00,,,0.05,tws,2013-05-09 01:50:00,
2013-05-08 21:55:00,54.4,55.0,29.80,North,-999,-999.0,-999.0,102,0.00,,,0.05,tws,2013-05-09 01:55:00,
2013-05-08 22:00:00,54.3,54.8,29.79,North,-999,-999.0,-999.0,101,0.00,,,0.05,tws,2013-05-09 02:00:00,
2013-05-08 22:10:00,54.1,54.6,29.79,North,-999,-999.0,-999.0,102,0.00,,,0.05,tws,2013-05-09 02:10:00,
2013-05-08 22:15:00,54.0,54.6,29.79,North,-999,-999.0,-999.0,102,0.00,,,0.05,tws,2013-05-09 02:15:00,
2013-05-08 22:20:00,54.0,54.6,29.79,North,-999,-999.0,-999.0,102,0.00,,,0.05,tws,2013-05-09 02:20:00,
2013-05-08 22:25:00,54.0,54.6,29.79,North,-999,-999.0,-999.0,102,0.00,,,0.05,tws,2013-05-09 02:25:00,
2013-05-08 22:30:00,54.2,54.8,29.79,North,-999,-999.0,-999.0,102,0.00,,,0.05,tws,2013-05-09 02:30:00,
2013-05-08 22:35:00,54.2,54.9,29.79,North,-999,-999.0,-999.0,102,0.00,,,0.05,tws,2013-05-09 02:35:00,
2013-05-08 22:40:00,54.3,54.9,29.79,North,-999,-999.0,-999.0,102,0.00,,,0.05,tws,2013-05-09 02:40:00,
2013-05-08 22:45:00,54.2,54.7,29.80,North,-999,-999.0,-999.0,102,0.00,,,0.05,tws,2013-05-09 02:45:00,
2013-05-08 22:50:00,54.0,54.6,29.80,North,-999,-999.0,-999.0,102,0.00,,,0.05,tws,2013-05-09 02:50:00,
2013-05-08 22:55:00,53.8,54.3,29.80,North,-999,-999.0,-999.0,102,0.00,,,0.05,tws,2013-05-09 02:55:00,
2013-05-08 23:00:00,53.5,54.1,29.80,North,-999,-999.0,-999.0,102,0.00,,,0.05,tws,2013-05-09 03:00:00,
2013-05-08 23:05:00,53.3,53.9,29.80,North,-999,-999.0,-999.0,102,0.00,,,0.05,tws,2013-05-09 03:05:00,
2013-05-08 23:10:00,53.1,53.7,29.80,North,-999,-999.0,-999.0,102,0.00,,,0.05,tws,2013-05-09 03:10:00,
2013-05-08 23:15:00,53.0,53.6,29.80,North,-999,-999.0,-999.0,102,0.00,,,0.05,tws,2013-05-09 03:15:00,
2013-05-08 23:20:00,52.9,53.5,29.80,North,-999,-999.0,-999.0,102,0.00,,,0.05,tws,2013-05-09 03:20:00,
2013-05-08 23:25:00,52.8,53.4,29.80,North,-999,-999.0,-999.0,102,0.00,,,0.05,tws,2013-05-09 03:25:00,
2013-05-08 23:30:00,52.7,53.4,29.80,North,-999,-999.0,-999.0,102,0.00,,,0.05,tws,2013-05-09 03:30:00,
2013-05-08 23:35:00,52.6,53.2,29.80,North,-999,-999.0,-999.0,102,0.00,,,0.05,tws,2013-05-09 03:35:00,
2013-05-08 23:40:00,52.5,53.1,29.80,North,-999,-999.0,-999.0,102,0.00,,,0.05,tws,2013-05-09 03:40:00,
2013-05-08 23:45:00,52.4,53.0,29.80,North,-999,-999.0,-999.0,102,0.00,,,0.05,tws,2013-05-09 03:45:00,
2013-05-08 23:50:00,52.2,52.9,29.80,North,-999,-999.0,-999.0,102,0.00,,,0.05,tws,2013-05-09 03:50:00,
2013-05-08 23:55:00,52.2,52.8,29.79,North,-999,-999.0,-999.0,102,0.00,,,0.05,tws,2013-05-09 03:55:00,